Thunder radar more information blitzortung!


Radar de pluja more information rain snow radar


Visita la nostra xarxa de llocs de meteo:

Template documentation
and downloads

And another site



No particular awareness of the weather is required.    There are no Weather-warnings

Pagina Historial Weather Underground text

Diari Resum Novembre 7, 2017 Unitats:  Imperial    Mètric   Tant
« Previous Dia
SegĂźent Dia »
Diari Setmana Mensual Anual Personalitzada
  Maxima: Minima: Media:
Temperatura: TemperatureC °F 3.0 °F 8.9 °F
Punt de rosada: DewpointC °F -10.7 °F -5.2 °F
Humitat: Humidity % 29 % 37 %
Wind Speed: WindSpeedKMH mph 0.0 mph 4.8 mph
RĂ fegues de vent: WindSpeedGustKMH mph - -
Vent:- - SSW
Pression baro: PressurehPa in 1015.8 in -
Precipitacions: 0.0 in    
Historical Graphs
 
 
Dades de taula per Novembre 7, 2017
Temps Temperatura Punt de rosada Pression baro Vent Wind Speed RĂ fegues de vent Humitat Rainfall Rate (Hourly)
TemperatureC °F DewpointC °F PressurehPa in Calm     Humidity % HourlyPrecipMM in
00:03 7.0 °F -9.8 °F 1015.8 in SSW 1.9 mph   29 % 0.0 in
00:05 3.4 °F -10.7 °F 1017.8 in WSW 1.6 mph 3.2 mph 35 % 0.0 in
00:08 7.0 °F -9.8 °F 1016.8 in SSW 7.4 mph 7.4 mph 29 % 0.0 in
00:15 3.5 °F -10.2 °F 1017.8 in Calm   1.6 mph 36 % 0.0 in
00:25 3.4 °F -10.3 °F 1016.8 in Calm   1.6 mph 36 % 0.0 in
00:45 3.2 °F -10.1 °F 1017.8 in WSW 1.6 mph 4.8 mph 37 % 0.0 in
00:55 3.3 °F -10.1 °F 1017.8 in Calm   3.2 mph 37 % 0.0 in
01:05 3.2 °F -9.8 °F 1017.8 in WNW 1.6 mph 3.2 mph 38 % 0.0 in
01:15 3.3 °F -9.4 °F 1017.8 in Calm   1.6 mph 39 % 0.0 in
01:25 3.2 °F -9.4 °F 1017.8 in Calm   1.6 mph 39 % 0.0 in
01:45 3.0 °F -9.0 °F 1017.8 in West 1.6 mph 3.2 mph 41 % 0.0 in
01:55 3.3 °F -8.7 °F 1017.8 in Calm   3.2 mph 41 % 0.0 in
02:05 4.1 °F -7.7 °F 1017.8 in WNW 1.6 mph 3.2 mph 42 % 0.0 in
02:15 4.6 °F -7.2 °F 1018.8 in NNE 1.6 mph 1.6 mph 42 % 0.0 in
02:25 4.8 °F -6.7 °F 1018.8 in Calm   4.8 mph 43 % 0.0 in
02:35 5.2 °F -6.4 °F 1018.8 in North 1.6 mph 3.2 mph 43 % 0.0 in
02:45 5.9 °F -5.7 °F 1018.8 in North 1.6 mph 4.8 mph 43 % 0.0 in
02:55 6.0 °F -5.7 °F 1018.8 in North 1.6 mph 4.8 mph 43 % 0.0 in
03:05 6.3 °F -5.4 °F 1018.8 in North 3.2 mph 4.8 mph 43 % 0.0 in
03:15 6.0 °F -5.7 °F 1018.8 in NE 4.8 mph 8.0 mph 43 % 0.0 in
03:25 6.7 °F -4.7 °F 1018.8 in NE 1.6 mph 3.2 mph 44 % 0.0 in
03:35 6.8 °F -4.6 °F 1018.8 in NE 3.2 mph 4.8 mph 44 % 0.0 in
03:45 7.0 °F -4.4 °F 1018.8 in NNE 3.2 mph 8.0 mph 44 % 0.0 in
03:55 7.4 °F -4.1 °F 1018.8 in Calm   6.4 mph 44 % 0.0 in
04:05 7.9 °F -3.6 °F 1018.8 in NNE 3.2 mph 4.8 mph 44 % 0.0 in
04:15 8.4 °F -3.2 °F 1018.8 in NE 1.6 mph 4.8 mph 44 % 0.0 in
10:17 8.5 °F -3.4 °F 1018.8 in North 3.7 mph 3.7 mph 43 % 0.0 in
10:18 8.5 °F -3.4 °F 1018.8 in NNE 3.7 mph 3.7 mph 43 % 0.0 in
10:19 8.6 °F -3.3 °F 1018.8 in NW 5.6 mph 5.6 mph 43 % 0.0 in
10:24 9.0 °F -2.9 °F 1017.8 in WSW 9.3 mph 9.3 mph 43 % 0.0 in
10:29 9.2 °F -3.1 °F 1017.8 in West 13.0 mph 13.0 mph 42 % 0.0 in
10:34 9.4 °F -2.9 °F 1017.8 in SW 13.0 mph 13.0 mph 42 % 0.0 in
10:39 9.7 °F -2.6 °F 1018.8 in West 9.3 mph 9.3 mph 42 % 0.0 in
10:44 10.0 °F -2.7 °F 1018.8 in WNW 5.6 mph 5.6 mph 41 % 0.0 in
10:49 10.1 °F -2.6 °F 1018.8 in WSW 9.5 mph 9.5 mph 41 % 0.0 in
10:54 10.3 °F -2.7 °F 1018.8 in SSW 7.4 mph 7.4 mph 40 % 0.0 in
10:59 10.4 °F -2.7 °F 1018.8 in West 11.1 mph 11.1 mph 40 % 0.0 in
11:04 10.3 °F -3.4 °F 1018.8 in West 14.8 mph 14.8 mph 38 % 0.0 in
11:09 10.6 °F -3.2 °F 1018.8 in WNW 7.4 mph 7.4 mph 38 % 0.0 in
11:14 10.6 °F -3.5 °F 1018.8 in WSW 11.1 mph 11.1 mph 37 % 0.0 in
11:19 10.8 °F -3.3 °F 1018.8 in WNW 9.3 mph 9.3 mph 37 % 0.0 in
11:24 10.9 °F -3.6 °F 1018.8 in SW 11.1 mph 11.1 mph 36 % 0.0 in
11:29 11.1 °F -3.4 °F 1018.8 in WSW 13.0 mph 13.0 mph 36 % 0.0 in
11:34 11.1 °F -3.8 °F 1018.8 in West 11.1 mph 11.1 mph 35 % 0.0 in
11:39 11.2 °F -3.7 °F 1018.8 in West 9.3 mph 9.3 mph 35 % 0.0 in
11:44 11.5 °F -3.4 °F 1018.8 in WSW 7.4 mph 7.4 mph 35 % 0.0 in
11:49 11.7 °F -3.3 °F 1018.8 in WSW 9.3 mph 9.3 mph 35 % 0.0 in
11:54 11.8 °F -3.6 °F 1018.8 in WNW 5.6 mph 5.6 mph 34 % 0.0 in
11:59 11.8 °F -3.6 °F 1018.8 in NW 11.1 mph 11.1 mph 34 % 0.0 in
12:04 12.2 °F -3.2 °F 1018.8 in ESE 9.3 mph 9.3 mph 34 % 0.0 in
12:09 12.4 °F -3.1 °F 1018.8 in West 11.1 mph 11.1 mph 34 % 0.0 in
12:14 12.5 °F -2.9 °F 1018.8 in WSW 9.3 mph 9.3 mph 34 % 0.0 in
12:19 12.5 °F -3.3 °F 1018.8 in WSW 11.1 mph 11.1 mph 33 % 0.0 in
12:29 13.1 °F -2.8 °F 1018.8 in West 3.9 mph 3.9 mph 33 % 0.0 in
12:34 13.3 °F -2.7 °F 1018.8 in West 7.4 mph 7.4 mph 33 % 0.0 in
12:39 13.3 °F -2.7 °F 1017.8 in WNW 13.0 mph 13.0 mph 33 % 0.0 in
12:44 13.5 °F -2.5 °F 1017.8 in SSW 13.0 mph 13.0 mph 33 % 0.0 in
12:49 13.5 °F -2.5 °F 1017.8 in WNW 9.3 mph 9.3 mph 33 % 0.0 in
12:54 13.5 °F -2.9 °F 1017.8 in West 13.0 mph 13.0 mph 32 % 0.0 in
13:04 13.8 °F -2.6 °F 1017.8 in West 11.1 mph 11.1 mph 32 % 0.0 in
13:09 13.7 °F -2.7 °F 1017.8 in WSW 7.9 mph 7.9 mph 32 % 0.0 in
13:14 14.0 °F -2.4 °F 1017.8 in South 10.0 mph 10.0 mph 32 % 0.0 in
13:19 13.7 °F -3.2 °F 1017.8 in West 14.8 mph 14.8 mph 31 % 0.0 in
13:24 13.6 °F -3.2 °F 1017.8 in WSW 9.3 mph 9.3 mph 31 % 0.0 in
13:29 13.8 °F -3.5 °F 1017.8 in West 13.0 mph 13.0 mph 30 % 0.0 in
13:34 13.6 °F -3.7 °F 1017.8 in North 11.1 mph 11.1 mph 30 % 0.0 in
13:39 13.6 °F -3.7 °F 1017.8 in South 11.9 mph 11.9 mph 30 % 0.0 in
13:44 13.6 °F -3.7 °F 1017.8 in WSW 11.4 mph 11.4 mph 30 % 0.0 in
13:49 13.6 °F -3.7 °F 1017.8 in West 14.8 mph 14.8 mph 30 % 0.0 in
13:54 13.5 °F -4.2 °F 1017.8 in West 9.3 mph 9.3 mph 29 % 0.0 in
13:59 13.5 °F -4.2 °F 1017.8 in West 9.3 mph 9.3 mph 29 % 0.0 in
14:04 13.6 °F -4.1 °F 1017.8 in SW 14.8 mph 14.8 mph 29 % 0.0 in
14:09 13.7 °F -3.6 °F 1016.8 in SW 13.0 mph 13.0 mph 30 % 0.0 in
14:14 13.8 °F -3.5 °F 1016.8 in West 7.4 mph 7.4 mph 30 % 0.0 in
14:19 13.9 °F -3.4 °F 1016.8 in SW 11.1 mph 11.1 mph 30 % 0.0 in
14:24 14.0 °F -3.3 °F 1017.8 in West 13.0 mph 13.0 mph 30 % 0.0 in
14:34 14.0 °F -3.3 °F 1017.8 in WSW 13.0 mph 13.0 mph 30 % 0.0 in
14:39 14.3 °F -3.1 °F 1017.8 in West 9.3 mph 9.3 mph 30 % 0.0 in
14:44 14.2 °F -3.2 °F 1017.8 in WSW 13.0 mph 13.0 mph 30 % 0.0 in
14:49 14.2 °F -3.2 °F 1017.8 in West 11.1 mph 11.1 mph 30 % 0.0 in
14:54 14.3 °F -3.1 °F 1017.8 in WSW 11.1 mph 11.1 mph 30 % 0.0 in
14:59 14.4 °F -3.0 °F 1017.8 in NW 5.8 mph 5.8 mph 30 % 0.0 in
15:04 14.5 °F -2.9 °F 1017.8 in West 9.3 mph 9.3 mph 30 % 0.0 in
15:09 14.5 °F -2.9 °F 1017.8 in SW 7.4 mph 7.4 mph 30 % 0.0 in
15:14 14.6 °F -2.8 °F 1017.8 in ENE 7.4 mph 7.4 mph 30 % 0.0 in
15:19 14.4 °F -3.0 °F 1017.8 in NW 5.6 mph 5.6 mph 30 % 0.0 in
15:24 14.5 °F -2.9 °F 1017.8 in South 5.6 mph 5.6 mph 30 % 0.0 in
15:29 14.5 °F -2.9 °F 1017.8 in WSW 14.8 mph 14.8 mph 30 % 0.0 in
15:34 14.4 °F -3.4 °F 1017.8 in West 9.3 mph 9.3 mph 29 % 0.0 in
15:36 14.5 °F -2.9 °F 1016.8 in WSW 9.5 mph 9.5 mph 30 % 0.0 in
15:41 14.5 °F -2.9 °F 1016.8 in WSW 9.0 mph 9.0 mph 30 % 0.0 in
15:46 14.3 °F -3.5 °F 1016.8 in SW 13.0 mph 13.0 mph 29 % 0.0 in
15:51 14.4 °F -3.4 °F 1017.8 in West 9.0 mph 9.0 mph 29 % 0.0 in
15:56 14.2 °F -3.6 °F 1017.8 in WSW 16.7 mph 16.7 mph 29 % 0.0 in
16:01 14.1 °F -3.7 °F 1017.8 in WSW 9.3 mph 9.3 mph 29 % 0.0 in
16:06 14.2 °F -3.6 °F 1016.8 in WNW 9.3 mph 9.3 mph 29 % 0.0 in
16:11 14.3 °F -3.1 °F 1016.8 in WSW 6.1 mph 6.1 mph 30 % 0.0 in
16:16 14.2 °F -3.2 °F 1016.8 in South 6.9 mph 6.9 mph 30 % 0.0 in
16:21 14.2 °F -3.6 °F 1016.8 in WSW 9.3 mph 9.3 mph 29 % 0.0 in
16:26 14.2 °F -3.2 °F 1016.8 in West 7.4 mph 7.4 mph 30 % 0.0 in
16:32 14.2 °F -3.2 °F 1016.8 in SW 9.3 mph 9.3 mph 30 % 0.0 in
16:37 14.2 °F -3.2 °F 1016.8 in WSW 9.3 mph 9.3 mph 30 % 0.0 in
16:42 14.2 °F -3.2 °F 1016.8 in WNW 5.6 mph 5.6 mph 30 % 0.0 in
16:47 14.1 °F -3.2 °F 1016.8 in WSW 3.7 mph 3.7 mph 30 % 0.0 in
16:52 14.0 °F -3.3 °F 1016.8 in WNW 4.7 mph 4.7 mph 30 % 0.0 in
16:57 13.8 °F -3.5 °F 1016.8 in NW 5.6 mph 5.6 mph 30 % 0.0 in
17:02 13.6 °F -3.7 °F 1016.8 in WNW 3.7 mph 3.7 mph 30 % 0.0 in
17:07 13.6 °F -3.7 °F 1016.8 in West 5.8 mph 5.8 mph 30 % 0.0 in
17:12 13.3 °F -3.9 °F 1016.8 in West 5.6 mph 5.6 mph 30 % 0.0 in
17:17 13.0 °F -4.2 °F 1016.8 in WSW 3.7 mph 3.7 mph 30 % 0.0 in
17:22 12.6 °F -4.6 °F 1016.8 in WSW 3.7 mph 3.7 mph 30 % 0.0 in
17:27 12.4 °F -4.7 °F 1016.8 in West 2.6 mph 2.6 mph 30 % 0.0 in
17:32 12.2 °F -4.9 °F 1016.8 in West 3.7 mph 3.7 mph 30 % 0.0 in
17:37 12.0 °F -5.1 °F 1017.8 in WSW 3.7 mph   30 % 0.0 in
17:42 11.8 °F -5.2 °F 1017.8 in West 3.7 mph 3.7 mph 30 % 0.0 in
17:47 11.5 °F -5.5 °F 1017.8 in WSW 1.9 mph 1.9 mph 30 % 0.0 in
17:52 11.3 °F -5.7 °F 1017.8 in WSW 2.6 mph 2.6 mph 30 % 0.0 in
17:57 11.2 °F -5.3 °F 1017.8 in WSW 3.7 mph 3.7 mph 31 % 0.0 in
18:02 11.1 °F -5.4 °F 1017.8 in West 3.7 mph 3.7 mph 31 % 0.0 in
18:07 10.8 °F -5.7 °F 1017.8 in Calm     31 % 0.0 in
18:12 10.5 °F -5.9 °F 1017.8 in NNE 3.7 mph 3.7 mph 31 % 0.0 in
18:15 4.5 °F -5.8 °F 1019.9 in Calm   1.6 mph 47 % 0.0 in
18:17 10.3 °F -6.1 °F 1017.8 in NNE 3.7 mph 3.7 mph 31 % 0.0 in
18:22 10.2 °F -6.2 °F 1017.8 in NE 3.7 mph 3.7 mph 31 % 0.0 in
18:25 4.5 °F -5.6 °F 1019.9 in WSW 3.2 mph 3.2 mph 48 % 0.0 in
18:27 10.1 °F -6.3 °F 1017.8 in NW 1.9 mph   31 % 0.0 in
18:32 10.0 °F -6.4 °F 1017.8 in WNW 2.3 mph   31 % 0.0 in
18:35 4.2 °F -5.8 °F 1019.9 in SW 1.6 mph 3.2 mph 48 % 0.0 in
18:37 9.9 °F -6.4 °F 1017.8 in NNE 3.7 mph   31 % 0.0 in
18:42 9.9 °F -6.4 °F 1017.8 in NNE 3.9 mph 3.9 mph 31 % 0.0 in
18:45 4.5 °F -5.6 °F 1019.9 in Calm   1.6 mph 48 % 0.0 in
18:47 9.7 °F -6.7 °F 1017.8 in North 3.7 mph 3.7 mph 31 % 0.0 in
18:52 9.6 °F -6.7 °F 1017.8 in NNE 3.7 mph 3.7 mph 31 % 0.0 in
18:55 4.2 °F -5.8 °F 1019.9 in WSW 1.6 mph 3.2 mph 48 % 0.0 in
18:57 9.6 °F -6.7 °F 1017.8 in Calm     31 % 0.0 in
19:02 9.4 °F -6.9 °F 1017.8 in Calm     31 % 0.0 in
19:05 4.0 °F -6.1 °F 1019.9 in Calm   3.2 mph 48 % 0.0 in
19:07 9.4 °F -6.9 °F 1018.8 in NW 1.9 mph 1.9 mph 31 % 0.0 in
19:12 9.4 °F -6.5 °F 1018.8 in NW 1.9 mph   32 % 0.0 in
19:15 4.1 °F -5.9 °F 1019.9 in West 1.6 mph 3.2 mph 48 % 0.0 in
19:17 9.4 °F -6.5 °F 1018.8 in NW 1.9 mph   32 % 0.0 in
19:22 9.2 °F -6.7 °F 1018.8 in Calm     32 % 0.0 in
19:25 4.2 °F -5.8 °F 1019.9 in Calm   3.2 mph 48 % 0.0 in
19:27 9.1 °F -6.8 °F 1018.8 in NW 1.9 mph   32 % 0.0 in
19:32 9.1 °F -6.8 °F 1018.8 in WNW 1.9 mph 1.9 mph 32 % 0.0 in
19:35 4.3 °F -5.8 °F 1019.9 in Calm   1.6 mph 48 % 0.0 in
19:37 9.1 °F -6.8 °F 1018.8 in NNE 1.9 mph   32 % 0.0 in
19:42 9.0 °F -6.8 °F 1018.8 in Calm     32 % 0.0 in
19:45 4.4 °F -5.7 °F 1018.8 in Calm   1.6 mph 48 % 0.0 in
19:47 8.8 °F -6.6 °F 1018.8 in Calm     33 % 0.0 in
19:52 8.7 °F -6.7 °F 1018.8 in North 1.9 mph   33 % 0.0 in
19:55 4.6 °F -5.5 °F 1019.9 in WNW 1.6 mph 3.2 mph 48 % 0.0 in
19:57 8.7 °F -6.7 °F 1018.8 in NW 1.9 mph 1.9 mph 33 % 0.0 in
20:02 8.7 °F -6.7 °F 1018.8 in WNW 3.7 mph 3.7 mph 33 % 0.0 in
20:05 4.1 °F -5.9 °F 1019.9 in Calm   1.6 mph 48 % 0.0 in
20:07 8.5 °F -6.9 °F 1019.9 in WNW 3.7 mph 3.7 mph 33 % 0.0 in
20:12 8.5 °F -6.9 °F 1019.9 in WNW 3.7 mph 3.7 mph 33 % 0.0 in
20:15 3.6 °F -6.1 °F 1018.8 in NNE 3.2 mph 4.8 mph 49 % 0.0 in
20:17 8.5 °F -6.9 °F 1019.9 in Calm     33 % 0.0 in
20:22 8.4 °F -6.9 °F 1019.9 in NNE 3.9 mph 3.9 mph 33 % 0.0 in
20:27 8.2 °F -6.8 °F 1019.9 in NE 3.7 mph   34 % 0.0 in
20:32 8.1 °F -6.8 °F 1019.9 in WNW 2.3 mph 2.3 mph 34 % 0.0 in
20:35 3.6 °F -6.1 °F 1019.9 in Calm   1.6 mph 49 % 0.0 in
20:37 7.6 °F -7.3 °F 1019.9 in WSW 3.7 mph 3.7 mph 34 % 0.0 in
20:42 7.5 °F -7.4 °F 1019.9 in WSW 1.9 mph 1.9 mph 34 % 0.0 in
20:45 3.7 °F -5.8 °F 1019.9 in North 1.6 mph 4.8 mph 50 % 0.0 in
20:47 7.7 °F -7.2 °F 1019.9 in WNW 2.6 mph 2.6 mph 34 % 0.0 in
20:52 7.7 °F -7.2 °F 1019.9 in WNW 2.3 mph 2.3 mph 34 % 0.0 in
20:55 3.2 °F -6.2 °F 1019.9 in West 3.2 mph 4.8 mph 50 % 0.0 in
20:57 7.7 °F -7.2 °F 1019.9 in WNW 2.6 mph 2.6 mph 34 % 0.0 in
21:03 7.7 °F -7.2 °F 1019.9 in West 2.3 mph 2.3 mph 34 % 0.0 in
21:05 3.1 °F -6.3 °F 1019.9 in WSW 1.6 mph 4.8 mph 50 % 0.0 in
21:07 7.5 °F -7.0 °F 1018.8 in ESE 7.4 mph 7.4 mph 35 % 0.0 in
21:12 7.0 °F -7.4 °F 1018.8 in ENE 5.8 mph 5.8 mph 35 % 0.0 in
21:15 3.5 °F -5.9 °F 1019.9 in WSW 3.2 mph 4.8 mph 50 % 0.0 in
21:17 7.1 °F -7.0 °F 1018.8 in ENE 3.7 mph 3.7 mph 36 % 0.0 in
21:23 7.0 °F -7.1 °F 1019.9 in NNE 2.3 mph 2.3 mph 36 % 0.0 in
21:27 6.9 °F -6.8 °F 1019.9 in SSW 3.7 mph 3.7 mph 37 % 0.0 in
21:33 6.6 °F -6.7 °F 1019.9 in Calm     38 % 0.0 in
21:35 3.8 °F -5.7 °F 1019.9 in WSW 3.2 mph 4.8 mph 50 % 0.0 in
21:43 6.6 °F -6.4 °F 1019.9 in Calm     39 % 0.0 in
21:44 6.5 °F -6.5 °F 1019.9 in SSW 2.3 mph   39 % 0.0 in
21:45 4.0 °F -5.2 °F 1019.9 in WSW 1.6 mph 3.2 mph 51 % 0.0 in
21:54 6.4 °F -6.6 °F 1019.9 in WSW 2.3 mph   39 % 0.0 in
21:55 4.2 °F -5.3 °F 1019.9 in WSW 1.6 mph 3.2 mph 50 % 0.0 in
21:59 6.2 °F -6.4 °F 1019.9 in WSW 2.3 mph 2.3 mph 40 % 0.0 in
22:04 6.2 °F -6.4 °F 1019.9 in WSW 1.9 mph   40 % 0.0 in
22:05 4.3 °F -4.9 °F 1019.9 in NW 1.6 mph 1.6 mph 51 % 0.0 in
22:09 6.1 °F -6.2 °F 1019.9 in Calm     41 % 0.0 in
22:14 6.0 °F -6.3 °F 1019.9 in WSW 3.7 mph 3.7 mph 41 % 0.0 in
22:15 4.6 °F -4.7 °F 1019.9 in North 1.6 mph 3.2 mph 51 % 0.0 in
22:19 6.0 °F -6.3 °F 1019.9 in Calm     41 % 0.0 in
22:24 5.9 °F -6.4 °F 1019.9 in Calm     41 % 0.0 in
22:29 5.7 °F -6.6 °F 1019.9 in Calm     41 % 0.0 in
22:34 5.7 °F -6.2 °F 1019.9 in SE 1.9 mph 1.9 mph 42 % 0.0 in
22:35 4.3 °F -4.9 °F 1019.9 in Calm   3.2 mph 51 % 0.0 in
22:44 5.4 °F -6.5 °F 1019.9 in SW 3.7 mph 3.7 mph 42 % 0.0 in
22:45 4.4 °F -4.9 °F 1019.9 in Calm   4.8 mph 51 % 0.0 in
22:49 5.2 °F -7.0 °F 1019.9 in SW 3.7 mph 3.7 mph 41 % 0.0 in
22:54 5.2 °F -6.7 °F 1019.9 in ENE 2.6 mph   42 % 0.0 in
22:55 4.4 °F -4.9 °F 1019.9 in NW 1.6 mph 3.2 mph 51 % 0.0 in
22:59 5.2 °F -6.7 °F 1019.9 in West 2.6 mph 2.6 mph 42 % 0.0 in
23:04 5.2 °F -6.4 °F 1019.9 in SSE 3.7 mph 3.7 mph 43 % 0.0 in
23:05 4.4 °F -4.9 °F 1019.9 in Calm   3.2 mph 51 % 0.0 in
23:09 5.2 °F -6.1 °F 1019.9 in Calm     44 % 0.0 in
23:14 5.2 °F -6.1 °F 1019.9 in Calm     44 % 0.0 in
23:15 4.4 °F -4.9 °F 1018.8 in NNE 1.6 mph 4.8 mph 51 % 0.0 in
23:19 5.2 °F -6.4 °F 1019.9 in WNW 2.3 mph 2.3 mph 43 % 0.0 in
23:24 5.1 °F -6.2 °F 1019.9 in NNE 2.3 mph 2.3 mph 44 % 0.0 in
23:25 4.3 °F -4.9 °F 1019.9 in NNE 3.2 mph 3.2 mph 51 % 0.0 in
23:29 5.1 °F -5.9 °F 1019.9 in Calm     45 % 0.0 in
23:34 5.0 °F -5.9 °F 1019.9 in South 1.9 mph   45 % 0.0 in
23:35 4.1 °F -5.2 °F 1019.9 in Calm   1.6 mph 51 % 0.0 in
23:39 4.9 °F -6.1 °F 1019.9 in SW 2.3 mph 2.3 mph 45 % 0.0 in
23:44 4.6 °F -6.1 °F 1019.9 in NNE 2.6 mph   46 % 0.0 in
23:45 4.0 °F -5.2 °F 1019.9 in WNW 1.6 mph 1.6 mph 51 % 0.0 in
23:49 4.5 °F -6.1 °F 1019.9 in North 3.7 mph 3.7 mph 46 % 0.0 in
23:54 4.5 °F -5.8 °F 1019.9 in North 1.9 mph 1.9 mph 47 % 0.0 in
23:55 3.8 °F -5.4 °F 1019.9 in WNW 1.6 mph 1.6 mph 51 % 0.0 in
23:59 4.5 °F -5.8 °F 1019.9 in NE 1.9 mph 1.9 mph 47 % 0.0 in
Meteo Sesrovires
Elogis d' Weather Underground - 1.5 mb

Guio original per  Jim McMurry - jmcmurry@mwt.net Adaptat per a la plantilla per  Wim van der Kuil - Leuven-Template.eu

Trobareu la nostra informacio del temps tambe a:

Weather Underground

AWEKAS